Date,TemperatureHighF,TemperatureAvgF,TemperatureLowF,DewpointHighF,DewpointAvgF,DewpointLowF,HumidityHigh,HumidityAvg,HumidityLow,PressureMaxIn,PressureMinIn,WindSpeedMaxMPH,WindSpeedAvgMPH,GustSpeedMaxMPH,PrecipitationSumIn
2013-1-1,36,34,32,36,34,32,100,100,100,30.42,30.28,4,0,7,0.02
2013-1-2,46,35,29,39,30,23,100,84,42,30.28,30.13,4,0,12,0.01
2013-1-3,30,28,27,30,28,27,100,100,100,30.13,30.07,1,0,5,0.00
2013-1-4,45,41,38,45,41,38,100,100,100,30.28,30.11,1,0,8,0.00
2013-1-5,40,38,37,38,35,31,100,89,77,30.14,30.08,3,1,8,0.00
2013-1-6,44,39,36,44,39,36,100,100,100,30.17,29.95,3,1,10,0.11
2013-1-7,52,48,44,52,48,44,100,100,100,30.13,29.87,6,2,13,0.21
2013-1-8,55,51,46,55,51,46,100,100,100,30.12,29.77,8,3,16,0.08
2013-1-9,54,43,37,54,43,37,100,99,87,29.91,29.58,10,1,14,0.60
2013-1-10,42,38,36,42,38,36,100,100,100,30.03,29.91,0,0,0,0.06
2013-1-11,41,35,31,38,33,26,100,93,55,30.24,30.04,4,0,5,0.00
2013-1-12,39,32,29,36,30,26,100,95,62,30.35,30.24,0,0,1,0.01
2013-1-13,36,30,24,33,29,24,100,97,74,30.43,30.34,0,0,5,0.00
2013-1-14,34,32,29,34,32,29,100,100,100,30.49,30.42,2,0,8,0.01
2013-1-15,38,36,34,38,36,34,100,100,100,30.61,30.50,4,0,7,0.00
2013-1-16,37,35,33,37,35,33,100,100,100,30.59,30.43,2,0,6,0.00
2013-1-17,39,35,32,39,35,32,100,100,100,30.43,30.24,1,0,8,0.00
2013-1-18,48,36,31,44,35,31,100,96,69,30.24,30.17,4,0,10,0.01
2013-1-19,40,34,32,40,34,32,100,100,100,30.28,30.21,9,3,13,0.00
2013-1-20,43,34,31,39,34,31,100,98,71,30.30,30.18,6,1,11,0.00
2013-1-21,44,35,27,36,29,26,100,82,54,30.21,30.06,3,0,8,0.00
2013-1-22,41,34,28,31,27,24,100,77,57,30.08,29.87,3,1,11,0.00
2013-1-23,36,35,34,36,30,23,100,82,62,30.13,29.81,4,1,10,0.04
2013-1-24,43,39,36,43,39,36,100,100,100,30.16,30.01,3,0,12,0.09
2013-1-25,54,47,44,54,47,44,100,100,93,30.02,29.87,3,0,11,0.00
2013-1-26,48,44,42,47,44,42,100,100,100,30.00,29.84,5,1,12,0.11
2013-1-27,43,42,40,43,42,40,100,100,100,30.05,29.96,3,1,10,0.17
2013-1-28,46,44,42,46,44,42,100,100,100,30.11,29.99,6,1,13,0.47
2013-1-29,51,48,46,51,48,46,100,100,100,30.37,30.10,6,1,10,0.18
2013-1-30,53,49,47,53,49,47,100,100,100,30.37,30.33,4,1,12,0.11
2013-1-31,53,51,48,53,51,48,100,100,100,30.38,30.26,3,0,8,0.05